sensor_id;sensor_type;location;lat;lon;timestamp;temperature;humidity
74540;SHT31;66042;51.090;-115.340;2024-01-15T00:00:30;-19.86;43.55
74540;SHT31;66042;51.090;-115.340;2024-01-15T00:02:57;-19.88;43.56
74540;SHT31;66042;51.090;-115.340;2024-01-15T00:05:24;-19.91;43.55
74540;SHT31;66042;51.090;-115.340;2024-01-15T00:07:51;-19.99;43.26
74540;SHT31;66042;51.090;-115.340;2024-01-15T00:10:18;-20.08;43.20
74540;SHT31;66042;51.090;-115.340;2024-01-15T00:12:45;-20.12;43.44
74540;SHT31;66042;51.090;-115.340;2024-01-15T00:15:12;-20.16;43.58
74540;SHT31;66042;51.090;-115.340;2024-01-15T00:17:39;-20.21;43.74
74540;SHT31;66042;51.090;-115.340;2024-01-15T00:20:06;-20.24;43.90
74540;SHT31;66042;51.090;-115.340;2024-01-15T00:22:34;-20.29;43.72
74540;SHT31;66042;51.090;-115.340;2024-01-15T00:25:01;-20.34;43.84
74540;SHT31;66042;51.090;-115.340;2024-01-15T00:27:29;-20.38;43.77
74540;SHT31;66042;51.090;-115.340;2024-01-15T00:29:56;-20.44;43.72
74540;SHT31;66042;51.090;-115.340;2024-01-15T00:32:23;-20.48;44.04
74540;SHT31;66042;51.090;-115.340;2024-01-15T00:34:50;-20.51;44.14
74540;SHT31;66042;51.090;-115.340;2024-01-15T00:37:17;-20.57;44.08
74540;SHT31;66042;51.090;-115.340;2024-01-15T00:39:44;-20.60;44.02
74540;SHT31;66042;51.090;-115.340;2024-01-15T00:42:11;-20.64;44.29
74540;SHT31;66042;51.090;-115.340;2024-01-15T00:44:38;-20.70;44.40
74540;SHT31;66042;51.090;-115.340;2024-01-15T00:47:05;-20.74;44.31
74540;SHT31;66042;51.090;-115.340;2024-01-15T00:49:32;-20.79;44.17
74540;SHT31;66042;51.090;-115.340;2024-01-15T00:51:59;-20.84;44.25
74540;SHT31;66042;51.090;-115.340;2024-01-15T00:54:26;-20.88;44.43
74540;SHT31;66042;51.090;-115.340;2024-01-15T00:56:53;-20.89;44.62
74540;SHT31;66042;51.090;-115.340;2024-01-15T00:59:20;-20.92;44.97
74540;SHT31;66042;51.090;-115.340;2024-01-15T01:01:47;-20.93;44.79
74540;SHT31;66042;51.090;-115.340;2024-01-15T01:04:14;-20.96;44.50
74540;SHT31;66042;51.090;-115.340;2024-01-15T01:06:41;-21.01;44.60
74540;SHT31;66042;51.090;-115.340;2024-01-15T01:09:07;-21.05;44.68
74540;SHT31;66042;51.090;-115.340;2024-01-15T01:11:34;-21.11;45.11
74540;SHT31;66042;51.090;-115.340;2024-01-15T01:14:01;-21.14;44.85
74540;SHT31;66042;51.090;-115.340;2024-01-15T01:16:28;-21.17;44.54
74540;SHT31;66042;51.090;-115.340;2024-01-15T01:18:56;-21.21;44.14
74540;SHT31;66042;51.090;-115.340;2024-01-15T01:21:23;-21.25;44.21
74540;SHT31;66042;51.090;-115.340;2024-01-15T01:23:50;-21.27;44.49
74540;SHT31;66042;51.090;-115.340;2024-01-15T01:26:17;-21.31;44.42
74540;SHT31;66042;51.090;-115.340;2024-01-15T01:28:44;-21.33;44.40
74540;SHT31;66042;51.090;-115.340;2024-01-15T01:31:11;-21.36;44.42
74540;SHT31;66042;51.090;-115.340;2024-01-15T01:33:38;-21.43;44.18
74540;SHT31;66042;51.090;-115.340;2024-01-15T01:36:09;-21.50;44.05
74540;SHT31;66042;51.090;-115.340;2024-01-15T01:38:36;-21.55;43.81
74540;SHT31;66042;51.090;-115.340;2024-01-15T01:41:03;-21.60;43.78
74540;SHT31;66042;51.090;-115.340;2024-01-15T01:43:31;-21.61;43.71
74540;SHT31;66042;51.090;-115.340;2024-01-15T01:45:57;-21.64;43.74
74540;SHT31;66042;51.090;-115.340;2024-01-15T01:48:26;-21.66;44.01
74540;SHT31;66042;51.090;-115.340;2024-01-15T01:50:54;-21.67;44.48
74540;SHT31;66042;51.090;-115.340;2024-01-15T01:53:25;-21.65;44.34
74540;SHT31;66042;51.090;-115.340;2024-01-15T01:55:53;-21.66;44.32
74540;SHT31;66042;51.090;-115.340;2024-01-15T01:58:22;-21.68;44.48
74540;SHT31;66042;51.090;-115.340;2024-01-15T02:00:51;-21.71;44.41
74540;SHT31;66042;51.090;-115.340;2024-01-15T02:03:18;-21.73;44.25
74540;SHT31;66042;51.090;-115.340;2024-01-15T02:05:46;-21.76;44.56
74540;SHT31;66042;51.090;-115.340;2024-01-15T02:08:15;-21.78;44.30
74540;SHT31;66042;51.090;-115.340;2024-01-15T02:10:42;-21.78;44.17
74540;SHT31;66042;51.090;-115.340;2024-01-15T02:13:10;-21.82;44.04
74540;SHT31;66042;51.090;-115.340;2024-01-15T02:15:37;-21.83;43.90
74540;SHT31;66042;51.090;-115.340;2024-01-15T02:18:04;-21.86;43.76
74540;SHT31;66042;51.090;-115.340;2024-01-15T02:20:35;-21.89;43.72
74540;SHT31;66042;51.090;-115.340;2024-01-15T02:23:15;-21.92;43.72
74540;SHT31;66042;51.090;-115.340;2024-01-15T02:25:46;-21.93;44.00
74540;SHT31;66042;51.090;-115.340;2024-01-15T02:28:17;-21.95;44.10
74540;SHT31;66042;51.090;-115.340;2024-01-15T02:30:45;-21.98;43.94
74540;SHT31;66042;51.090;-115.340;2024-01-15T02:33:12;-22.00;43.97
74540;SHT31;66042;51.090;-115.340;2024-01-15T02:35:39;-22.03;43.77
74540;SHT31;66042;51.090;-115.340;2024-01-15T02:38:07;-22.08;44.10
74540;SHT31;66042;51.090;-115.340;2024-01-15T02:40:35;-22.12;44.30
74540;SHT31;66042;51.090;-115.340;2024-01-15T02:43:03;-22.15;44.39
74540;SHT31;66042;51.090;-115.340;2024-01-15T02:45:30;-22.15;44.49
74540;SHT31;66042;51.090;-115.340;2024-01-15T02:47:58;-22.17;44.43
74540;SHT31;66042;51.090;-115.340;2024-01-15T02:50:25;-22.20;44.67
74540;SHT31;66042;51.090;-115.340;2024-01-15T02:52:52;-22.23;44.36
74540;SHT31;66042;51.090;-115.340;2024-01-15T02:55:19;-22.25;44.12
74540;SHT31;66042;51.090;-115.340;2024-01-15T02:57:47;-22.26;44.08
74540;SHT31;66042;51.090;-115.340;2024-01-15T03:00:14;-22.30;43.84
74540;SHT31;66042;51.090;-115.340;2024-01-15T03:02:41;-22.33;44.01
74540;SHT31;66042;51.090;-115.340;2024-01-15T03:05:11;-22.37;43.95
74540;SHT31;66042;51.090;-115.340;2024-01-15T03:07:38;-22.42;43.68
74540;SHT31;66042;51.090;-115.340;2024-01-15T03:10:05;-22.44;43.60
74540;SHT31;66042;51.090;-115.340;2024-01-15T03:12:33;-22.46;43.50
74540;SHT31;66042;51.090;-115.340;2024-01-15T03:15:00;-22.51;43.41
74540;SHT31;66042;51.090;-115.340;2024-01-15T03:17:28;-22.54;43.68
74540;SHT31;66042;51.090;-115.340;2024-01-15T03:19:55;-22.55;44.12
74540;SHT31;66042;51.090;-115.340;2024-01-15T03:22:22;-22.56;43.85
74540;SHT31;66042;51.090;-115.340;2024-01-15T03:24:49;-22.56;43.56
74540;SHT31;66042;51.090;-115.340;2024-01-15T03:27:15;-22.60;43.31
74540;SHT31;66042;51.090;-115.340;2024-01-15T03:29:42;-22.65;43.38
74540;SHT31;66042;51.090;-115.340;2024-01-15T03:32:09;-22.65;43.49
74540;SHT31;66042;51.090;-115.340;2024-01-15T03:34:36;-22.69;43.34
74540;SHT31;66042;51.090;-115.340;2024-01-15T03:37:03;-22.70;43.30
74540;SHT31;66042;51.090;-115.340;2024-01-15T03:39:31;-22.72;43.41
74540;SHT31;66042;51.090;-115.340;2024-01-15T03:41:58;-22.72;43.50
74540;SHT31;66042;51.090;-115.340;2024-01-15T03:44:25;-22.74;43.43
74540;SHT31;66042;51.090;-115.340;2024-01-15T03:46:52;-22.78;43.40
74540;SHT31;66042;51.090;-115.340;2024-01-15T03:49:19;-22.82;43.46
74540;SHT31;66042;51.090;-115.340;2024-01-15T03:51:46;-22.85;43.62
74540;SHT31;66042;51.090;-115.340;2024-01-15T03:54:13;-22.87;43.50
74540;SHT31;66042;51.090;-115.340;2024-01-15T03:56:40;-22.90;43.32
74540;SHT31;66042;51.090;-115.340;2024-01-15T03:59:07;-22.92;43.30
74540;SHT31;66042;51.090;-115.340;2024-01-15T04:01:34;-22.94;43.17
74540;SHT31;66042;51.090;-115.340;2024-01-15T04:04:01;-23.00;43.19
74540;SHT31;66042;51.090;-115.340;2024-01-15T04:06:28;-23.06;43.12
74540;SHT31;66042;51.090;-115.340;2024-01-15T04:08:55;-23.10;43.10
74540;SHT31;66042;51.090;-115.340;2024-01-15T04:11:22;-23.13;43.08
74540;SHT31;66042;51.090;-115.340;2024-01-15T04:13:49;-23.18;42.99
74540;SHT31;66042;51.090;-115.340;2024-01-15T04:16:15;-23.23;43.00
74540;SHT31;66042;51.090;-115.340;2024-01-15T04:18:42;-23.27;43.08
74540;SHT31;66042;51.090;-115.340;2024-01-15T04:21:09;-23.29;43.19
74540;SHT31;66042;51.090;-115.340;2024-01-15T04:23:37;-23.32;43.35
74540;SHT31;66042;51.090;-115.340;2024-01-15T04:26:05;-23.34;43.30
74540;SHT31;66042;51.090;-115.340;2024-01-15T04:28:31;-23.37;43.36
74540;SHT31;66042;51.090;-115.340;2024-01-15T04:30:58;-23.39;43.31
74540;SHT31;66042;51.090;-115.340;2024-01-15T04:33:25;-23.42;43.37
74540;SHT31;66042;51.090;-115.340;2024-01-15T04:35:52;-23.47;43.15
74540;SHT31;66042;51.090;-115.340;2024-01-15T04:38:19;-23.50;42.94
74540;SHT31;66042;51.090;-115.340;2024-01-15T04:40:46;-23.55;42.82
74540;SHT31;66042;51.090;-115.340;2024-01-15T04:43:13;-23.59;42.71
74540;SHT31;66042;51.090;-115.340;2024-01-15T04:45:40;-23.62;42.78
74540;SHT31;66042;51.090;-115.340;2024-01-15T04:48:07;-23.65;42.80
74540;SHT31;66042;51.090;-115.340;2024-01-15T04:50:35;-23.67;42.80
74540;SHT31;66042;51.090;-115.340;2024-01-15T04:53:03;-23.70;42.79
74540;SHT31;66042;51.090;-115.340;2024-01-15T04:55:30;-23.72;42.84
74540;SHT31;66042;51.090;-115.340;2024-01-15T04:57:58;-23.73;43.18
74540;SHT31;66042;51.090;-115.340;2024-01-15T05:00:25;-23.75;43.24
74540;SHT31;66042;51.090;-115.340;2024-01-15T05:02:52;-23.74;43.29
74540;SHT31;66042;51.090;-115.340;2024-01-15T05:05:19;-23.74;43.33
74540;SHT31;66042;51.090;-115.340;2024-01-15T05:07:46;-23.75;43.12
74540;SHT31;66042;51.090;-115.340;2024-01-15T05:10:13;-23.81;43.04
74540;SHT31;66042;51.090;-115.340;2024-01-15T05:12:40;-23.85;43.17
74540;SHT31;66042;51.090;-115.340;2024-01-15T05:15:07;-23.87;43.30
74540;SHT31;66042;51.090;-115.340;2024-01-15T05:17:35;-23.91;43.36
74540;SHT31;66042;51.090;-115.340;2024-01-15T05:20:02;-23.92;43.40
74540;SHT31;66042;51.090;-115.340;2024-01-15T05:22:29;-23.91;43.44
74540;SHT31;66042;51.090;-115.340;2024-01-15T05:24:56;-23.88;43.54
74540;SHT31;66042;51.090;-115.340;2024-01-15T05:27:23;-23.88;43.76
74540;SHT31;66042;51.090;-115.340;2024-01-15T05:29:51;-23.90;43.87
74540;SHT31;66042;51.090;-115.340;2024-01-15T05:32:18;-23.91;43.90
74540;SHT31;66042;51.090;-115.340;2024-01-15T05:34:45;-23.92;43.90
74540;SHT31;66042;51.090;-115.340;2024-01-15T05:37:12;-23.98;43.79
74540;SHT31;66042;51.090;-115.340;2024-01-15T05:39:39;-24.03;43.72
74540;SHT31;66042;51.090;-115.340;2024-01-15T05:42:06;-24.06;43.88
74540;SHT31;66042;51.090;-115.340;2024-01-15T05:44:33;-24.14;43.83
74540;SHT31;66042;51.090;-115.340;2024-01-15T05:47:00;-24.18;43.69
74540;SHT31;66042;51.090;-115.340;2024-01-15T05:49:26;-24.20;43.43
74540;SHT31;66042;51.090;-115.340;2024-01-15T05:51:53;-24.18;43.42
74540;SHT31;66042;51.090;-115.340;2024-01-15T05:54:20;-24.16;43.54
74540;SHT31;66042;51.090;-115.340;2024-01-15T05:56:47;-24.15;43.70
74540;SHT31;66042;51.090;-115.340;2024-01-15T05:59:14;-24.12;43.71
74540;SHT31;66042;51.090;-115.340;2024-01-15T06:01:42;-24.11;43.76
74540;SHT31;66042;51.090;-115.340;2024-01-15T06:04:09;-24.06;44.04
74540;SHT31;66042;51.090;-115.340;2024-01-15T06:06:36;-24.05;44.15
74540;SHT31;66042;51.090;-115.340;2024-01-15T06:09:03;-24.10;43.99
74540;SHT31;66042;51.090;-115.340;2024-01-15T06:11:31;-24.19;44.07
74540;SHT31;66042;51.090;-115.340;2024-01-15T06:13:58;-24.25;44.09
74540;SHT31;66042;51.090;-115.340;2024-01-15T06:16:28;-24.23;44.16
74540;SHT31;66042;51.090;-115.340;2024-01-15T06:18:55;-24.19;44.12
74540;SHT31;66042;51.090;-115.340;2024-01-15T06:21:22;-24.17;43.86
74540;SHT31;66042;51.090;-115.340;2024-01-15T06:23:49;-24.17;43.79
74540;SHT31;66042;51.090;-115.340;2024-01-15T06:26:16;-24.21;43.81
74540;SHT31;66042;51.090;-115.340;2024-01-15T06:28:43;-24.22;43.77
74540;SHT31;66042;51.090;-115.340;2024-01-15T06:31:11;-24.28;43.46
74540;SHT31;66042;51.090;-115.340;2024-01-15T06:33:38;-24.56;43.43
74540;SHT31;66042;51.090;-115.340;2024-01-15T06:36:05;-24.68;44.22
74540;SHT31;66042;51.090;-115.340;2024-01-15T06:38:33;-24.70;44.73
74540;SHT31;66042;51.090;-115.340;2024-01-15T06:41:00;-24.80;45.08
74540;SHT31;66042;51.090;-115.340;2024-01-15T06:43:28;-24.79;45.54
74540;SHT31;66042;51.090;-115.340;2024-01-15T06:45:55;-24.76;45.86
74540;SHT31;66042;51.090;-115.340;2024-01-15T06:48:22;-24.72;46.07
74540;SHT31;66042;51.090;-115.340;2024-01-15T06:50:49;-24.69;46.23
74540;SHT31;66042;51.090;-115.340;2024-01-15T06:53:16;-24.64;46.33
74540;SHT31;66042;51.090;-115.340;2024-01-15T06:55:43;-24.72;46.39
74540;SHT31;66042;51.090;-115.340;2024-01-15T06:58:10;-24.78;46.58
74540;SHT31;66042;51.090;-115.340;2024-01-15T07:00:37;-24.76;46.64
74540;SHT31;66042;51.090;-115.340;2024-01-15T07:03:06;-24.73;46.70
74540;SHT31;66042;51.090;-115.340;2024-01-15T07:05:33;-24.64;46.83
74540;SHT31;66042;51.090;-115.340;2024-01-15T07:08:00;-24.56;46.82
74540;SHT31;66042;51.090;-115.340;2024-01-15T07:10:27;-24.46;46.53
74540;SHT31;66042;51.090;-115.340;2024-01-15T07:12:54;-24.42;46.14
74540;SHT31;66042;51.090;-115.340;2024-01-15T07:15:21;-24.40;46.18
74540;SHT31;66042;51.090;-115.340;2024-01-15T07:17:49;-24.36;46.17
74540;SHT31;66042;51.090;-115.340;2024-01-15T07:20:16;-24.37;46.06
74540;SHT31;66042;51.090;-115.340;2024-01-15T07:22:44;-24.33;45.84
74540;SHT31;66042;51.090;-115.340;2024-01-15T07:25:11;-24.30;45.66
74540;SHT31;66042;51.090;-115.340;2024-01-15T07:27:38;-24.25;45.33
74540;SHT31;66042;51.090;-115.340;2024-01-15T07:30:08;-24.25;44.98
74540;SHT31;66042;51.090;-115.340;2024-01-15T07:32:35;-24.24;44.89
74540;SHT31;66042;51.090;-115.340;2024-01-15T07:35:04;-24.25;44.80
74540;SHT31;66042;51.090;-115.340;2024-01-15T07:37:32;-24.25;44.87
74540;SHT31;66042;51.090;-115.340;2024-01-15T07:39:59;-24.27;44.81
74540;SHT31;66042;51.090;-115.340;2024-01-15T07:42:26;-24.27;44.90
74540;SHT31;66042;51.090;-115.340;2024-01-15T07:44:53;-24.30;44.91
74540;SHT31;66042;51.090;-115.340;2024-01-15T07:47:20;-24.29;45.01
74540;SHT31;66042;51.090;-115.340;2024-01-15T07:49:47;-24.27;44.93
74540;SHT31;66042;51.090;-115.340;2024-01-15T07:52:14;-24.25;44.67
74540;SHT31;66042;51.090;-115.340;2024-01-15T07:54:41;-24.26;44.41
74540;SHT31;66042;51.090;-115.340;2024-01-15T07:57:08;-24.25;44.36
74540;SHT31;66042;51.090;-115.340;2024-01-15T07:59:35;-24.28;44.42
74540;SHT31;66042;51.090;-115.340;2024-01-15T08:02:02;-24.32;44.34
74540;SHT31;66042;51.090;-115.340;2024-01-15T08:04:29;-24.32;44.18
74540;SHT31;66042;51.090;-115.340;2024-01-15T08:06:56;-24.35;44.17
74540;SHT31;66042;51.090;-115.340;2024-01-15T08:09:23;-24.35;44.45
74540;SHT31;66042;51.090;-115.340;2024-01-15T08:11:50;-24.34;44.50
74540;SHT31;66042;51.090;-115.340;2024-01-15T08:14:18;-24.36;44.36
74540;SHT31;66042;51.090;-115.340;2024-01-15T08:16:45;-24.47;44.44
74540;SHT31;66042;51.090;-115.340;2024-01-15T08:19:12;-24.56;44.74
74540;SHT31;66042;51.090;-115.340;2024-01-15T08:21:40;-24.65;45.23
74540;SHT31;66042;51.090;-115.340;2024-01-15T08:24:07;-24.70;45.59
74540;SHT31;66042;51.090;-115.340;2024-01-15T08:26:35;-24.65;45.74
74540;SHT31;66042;51.090;-115.340;2024-01-15T08:29:02;-24.59;45.87
74540;SHT31;66042;51.090;-115.340;2024-01-15T08:31:29;-24.61;46.07
74540;SHT31;66042;51.090;-115.340;2024-01-15T08:33:56;-24.69;46.11
74540;SHT31;66042;51.090;-115.340;2024-01-15T08:36:24;-24.75;46.16
74540;SHT31;66042;51.090;-115.340;2024-01-15T08:38:52;-24.78;46.14
74540;SHT31;66042;51.090;-115.340;2024-01-15T08:41:19;-24.87;46.24
74540;SHT31;66042;51.090;-115.340;2024-01-15T08:43:46;-24.99;46.38
74540;SHT31;66042;51.090;-115.340;2024-01-15T08:46:13;-25.14;46.57
74540;SHT31;66042;51.090;-115.340;2024-01-15T08:48:40;-25.32;46.74
74540;SHT31;66042;51.090;-115.340;2024-01-15T08:51:07;-25.42;46.84
74540;SHT31;66042;51.090;-115.340;2024-01-15T08:53:34;-25.40;47.18
74540;SHT31;66042;51.090;-115.340;2024-01-15T08:56:01;-25.27;47.42
74540;SHT31;66042;51.090;-115.340;2024-01-15T08:58:29;-25.16;47.48
74540;SHT31;66042;51.090;-115.340;2024-01-15T09:00:56;-25.10;47.33
74540;SHT31;66042;51.090;-115.340;2024-01-15T09:03:23;-25.09;47.10
74540;SHT31;66042;51.090;-115.340;2024-01-15T09:05:51;-25.08;46.88
74540;SHT31;66042;51.090;-115.340;2024-01-15T09:08:18;-25.15;46.82
74540;SHT31;66042;51.090;-115.340;2024-01-15T09:10:45;-25.12;46.92
74540;SHT31;66042;51.090;-115.340;2024-01-15T09:13:12;-25.03;46.97
74540;SHT31;66042;51.090;-115.340;2024-01-15T09:15:39;-24.93;46.83
74540;SHT31;66042;51.090;-115.340;2024-01-15T09:18:08;-24.86;46.57
74540;SHT31;66042;51.090;-115.340;2024-01-15T09:20:35;-24.78;46.49
74540;SHT31;66042;51.090;-115.340;2024-01-15T09:23:04;-24.74;46.33
74540;SHT31;66042;51.090;-115.340;2024-01-15T09:25:31;-24.78;46.01
74540;SHT31;66042;51.090;-115.340;2024-01-15T09:27:58;-24.85;45.84
74540;SHT31;66042;51.090;-115.340;2024-01-15T09:30:25;-24.94;45.78
74540;SHT31;66042;51.090;-115.340;2024-01-15T09:32:52;-24.95;45.90
74540;SHT31;66042;51.090;-115.340;2024-01-15T09:35:19;-24.95;45.84
74540;SHT31;66042;51.090;-115.340;2024-01-15T09:37:47;-25.07;45.80
74540;SHT31;66042;51.090;-115.340;2024-01-15T09:40:14;-25.21;45.93
74540;SHT31;66042;51.090;-115.340;2024-01-15T09:42:42;-25.40;46.09
74540;SHT31;66042;51.090;-115.340;2024-01-15T09:45:10;-25.53;46.24
74540;SHT31;66042;51.090;-115.340;2024-01-15T09:47:38;-25.55;46.69
74540;SHT31;66042;51.090;-115.340;2024-01-15T09:50:07;-25.57;46.94
74540;SHT31;66042;51.090;-115.340;2024-01-15T09:52:34;-25.55;47.10
74540;SHT31;66042;51.090;-115.340;2024-01-15T09:55:03;-25.56;47.29
74540;SHT31;66042;51.090;-115.340;2024-01-15T09:57:31;-25.68;47.24
74540;SHT31;66042;51.090;-115.340;2024-01-15T09:59:59;-25.72;47.40
74540;SHT31;66042;51.090;-115.340;2024-01-15T10:02:29;-25.81;47.37
74540;SHT31;66042;51.090;-115.340;2024-01-15T10:04:57;-25.82;47.47
74540;SHT31;66042;51.090;-115.340;2024-01-15T10:07:24;-25.68;47.67
74540;SHT31;66042;51.090;-115.340;2024-01-15T10:09:53;-25.63;47.70
74540;SHT31;66042;51.090;-115.340;2024-01-15T10:12:21;-25.60;47.63
74540;SHT31;66042;51.090;-115.340;2024-01-15T10:14:50;-25.53;47.60
74540;SHT31;66042;51.090;-115.340;2024-01-15T10:17:17;-25.49;47.52
74540;SHT31;66042;51.090;-115.340;2024-01-15T10:19:47;-25.43;47.57
74540;SHT31;66042;51.090;-115.340;2024-01-15T10:22:14;-25.34;47.60
74540;SHT31;66042;51.090;-115.340;2024-01-15T10:24:42;-25.32;47.53
74540;SHT31;66042;51.090;-115.340;2024-01-15T10:27:09;-25.34;47.33
74540;SHT31;66042;51.090;-115.340;2024-01-15T10:29:37;-25.33;47.45
74540;SHT31;66042;51.090;-115.340;2024-01-15T10:32:08;-25.37;47.36
74540;SHT31;66042;51.090;-115.340;2024-01-15T10:34:38;-25.38;47.29
74540;SHT31;66042;51.090;-115.340;2024-01-15T10:37:09;-25.50;47.24
74540;SHT31;66042;51.090;-115.340;2024-01-15T10:39:36;-25.61;47.36
74540;SHT31;66042;51.090;-115.340;2024-01-15T10:42:04;-25.64;47.50
74540;SHT31;66042;51.090;-115.340;2024-01-15T10:44:31;-25.59;47.63
74540;SHT31;66042;51.090;-115.340;2024-01-15T10:46:59;-25.51;47.88
74540;SHT31;66042;51.090;-115.340;2024-01-15T10:49:26;-25.47;47.92
74540;SHT31;66042;51.090;-115.340;2024-01-15T10:51:54;-25.59;47.67
74540;SHT31;66042;51.090;-115.340;2024-01-15T10:54:23;-25.64;47.74
74540;SHT31;66042;51.090;-115.340;2024-01-15T10:56:52;-25.68;48.08
74540;SHT31;66042;51.090;-115.340;2024-01-15T10:59:21;-25.61;48.30
74540;SHT31;66042;51.090;-115.340;2024-01-15T11:01:48;-25.57;48.05
74540;SHT31;66042;51.090;-115.340;2024-01-15T11:04:19;-25.49;47.90
74540;SHT31;66042;51.090;-115.340;2024-01-15T11:06:52;-25.50;47.73
74540;SHT31;66042;51.090;-115.340;2024-01-15T11:09:20;-25.53;47.83
74540;SHT31;66042;51.090;-115.340;2024-01-15T11:11:47;-25.58;48.01
74540;SHT31;66042;51.090;-115.340;2024-01-15T11:14:34;-25.73;48.04
74540;SHT31;66042;51.090;-115.340;2024-01-15T11:17:12;-25.85;48.07
74540;SHT31;66042;51.090;-115.340;2024-01-15T11:19:47;-25.92;48.16
74540;SHT31;66042;51.090;-115.340;2024-01-15T11:25:01;-25.99;48.89
74540;SHT31;66042;51.090;-115.340;2024-01-15T11:27:46;-25.98;49.00
74540;SHT31;66042;51.090;-115.340;2024-01-15T11:30:17;-25.90;48.93
74540;SHT31;66042;51.090;-115.340;2024-01-15T11:32:48;-25.83;48.69
74540;SHT31;66042;51.090;-115.340;2024-01-15T11:35:15;-25.89;48.60
74540;SHT31;66042;51.090;-115.340;2024-01-15T11:40:18;-26.07;49.01
74540;SHT31;66042;51.090;-115.340;2024-01-15T11:43:03;-26.20;49.43
74540;SHT31;66042;51.090;-115.340;2024-01-15T11:45:32;-26.25;49.73
74540;SHT31;66042;51.090;-115.340;2024-01-15T11:48:13;-26.21;50.00
74540;SHT31;66042;51.090;-115.340;2024-01-15T11:50:47;-26.16;49.98
74540;SHT31;66042;51.090;-115.340;2024-01-15T11:53:25;-26.13;49.95
74540;SHT31;66042;51.090;-115.340;2024-01-15T11:56:03;-26.06;50.03
74540;SHT31;66042;51.090;-115.340;2024-01-15T11:58:41;-25.93;49.90
74540;SHT31;66042;51.090;-115.340;2024-01-15T12:01:10;-25.82;49.58
74540;SHT31;66042;51.090;-115.340;2024-01-15T12:03:37;-25.77;49.41
74540;SHT31;66042;51.090;-115.340;2024-01-15T12:06:08;-25.75;49.25
74540;SHT31;66042;51.090;-115.340;2024-01-15T12:08:36;-25.73;49.11
74540;SHT31;66042;51.090;-115.340;2024-01-15T12:11:06;-25.60;48.94
74540;SHT31;66042;51.090;-115.340;2024-01-15T12:13:39;-25.57;48.63
74540;SHT31;66042;51.090;-115.340;2024-01-15T12:16:07;-25.54;48.48
74540;SHT31;66042;51.090;-115.340;2024-01-15T12:18:34;-25.58;48.36
74540;SHT31;66042;51.090;-115.340;2024-01-15T12:21:01;-25.76;48.23
74540;SHT31;66042;51.090;-115.340;2024-01-15T12:23:30;-26.03;48.44
74540;SHT31;66042;51.090;-115.340;2024-01-15T12:25:57;-26.13;48.95
74540;SHT31;66042;51.090;-115.340;2024-01-15T12:28:27;-26.32;49.27
74540;SHT31;66042;51.090;-115.340;2024-01-15T12:30:55;-26.56;49.82
74540;SHT31;66042;51.090;-115.340;2024-01-15T12:33:22;-26.68;50.37
74540;SHT31;66042;51.090;-115.340;2024-01-15T12:35:52;-26.62;50.63
74540;SHT31;66042;51.090;-115.340;2024-01-15T12:38:19;-26.52;50.63
74540;SHT31;66042;51.090;-115.340;2024-01-15T12:40:46;-26.49;50.63
74540;SHT31;66042;51.090;-115.340;2024-01-15T12:43:14;-26.41;50.70
74540;SHT31;66042;51.090;-115.340;2024-01-15T12:45:41;-26.30;50.67
74540;SHT31;66042;51.090;-115.340;2024-01-15T12:48:08;-26.21;50.46
74540;SHT31;66042;51.090;-115.340;2024-01-15T12:50:35;-26.15;50.25
74540;SHT31;66042;51.090;-115.340;2024-01-15T12:53:02;-26.25;50.25
74540;SHT31;66042;51.090;-115.340;2024-01-15T12:55:29;-26.37;50.40
74540;SHT31;66042;51.090;-115.340;2024-01-15T12:57:56;-26.48;50.63
74540;SHT31;66042;51.090;-115.340;2024-01-15T13:00:24;-26.63;50.76
74540;SHT31;66042;51.090;-115.340;2024-01-15T13:02:51;-26.75;51.05
74540;SHT31;66042;51.090;-115.340;2024-01-15T13:05:19;-26.72;51.29
74540;SHT31;66042;51.090;-115.340;2024-01-15T13:07:48;-26.73;51.48
74540;SHT31;66042;51.090;-115.340;2024-01-15T13:10:15;-26.65;51.47
74540;SHT31;66042;51.090;-115.340;2024-01-15T13:12:42;-26.49;51.37
74540;SHT31;66042;51.090;-115.340;2024-01-15T13:15:09;-26.34;51.14
74540;SHT31;66042;51.090;-115.340;2024-01-15T13:17:37;-26.30;50.88
74540;SHT31;66042;51.090;-115.340;2024-01-15T13:20:06;-26.21;50.85
74540;SHT31;66042;51.090;-115.340;2024-01-15T13:22:34;-26.18;50.79
74540;SHT31;66042;51.090;-115.340;2024-01-15T13:25:01;-26.11;50.61
74540;SHT31;66042;51.090;-115.340;2024-01-15T13:27:29;-26.06;50.55
74540;SHT31;66042;51.090;-115.340;2024-01-15T13:29:57;-26.03;50.39
74540;SHT31;66042;51.090;-115.340;2024-01-15T13:32:25;-26.03;50.23
74540;SHT31;66042;51.090;-115.340;2024-01-15T13:34:57;-25.99;50.29
74540;SHT31;66042;51.090;-115.340;2024-01-15T13:37:25;-25.93;50.06
74540;SHT31;66042;51.090;-115.340;2024-01-15T13:39:52;-26.01;49.88
74540;SHT31;66042;51.090;-115.340;2024-01-15T13:42:19;-25.98;50.07
74540;SHT31;66042;51.090;-115.340;2024-01-15T13:44:52;-25.85;50.14
74540;SHT31;66042;51.090;-115.340;2024-01-15T13:47:19;-25.77;50.07
74540;SHT31;66042;51.090;-115.340;2024-01-15T13:49:47;-25.91;49.81
74540;SHT31;66042;51.090;-115.340;2024-01-15T13:52:14;-25.99;49.80
74540;SHT31;66042;51.090;-115.340;2024-01-15T13:54:41;-26.00;49.95
74540;SHT31;66042;51.090;-115.340;2024-01-15T13:57:08;-26.04;50.00
74540;SHT31;66042;51.090;-115.340;2024-01-15T13:59:36;-26.07;50.11
74540;SHT31;66042;51.090;-115.340;2024-01-15T14:02:03;-26.09;50.10
74540;SHT31;66042;51.090;-115.340;2024-01-15T14:04:31;-26.13;50.17
74540;SHT31;66042;51.090;-115.340;2024-01-15T14:06:58;-26.15;50.18
74540;SHT31;66042;51.090;-115.340;2024-01-15T14:09:25;-26.13;50.29
74540;SHT31;66042;51.090;-115.340;2024-01-15T14:11:53;-26.14;50.30
74540;SHT31;66042;51.090;-115.340;2024-01-15T14:14:20;-26.15;50.32
74540;SHT31;66042;51.090;-115.340;2024-01-15T14:16:47;-26.10;50.42
74540;SHT31;66042;51.090;-115.340;2024-01-15T14:19:15;-26.12;50.50
74540;SHT31;66042;51.090;-115.340;2024-01-15T14:21:42;-26.10;50.54
74540;SHT31;66042;51.090;-115.340;2024-01-15T14:24:09;-25.99;50.55
74540;SHT31;66042;51.090;-115.340;2024-01-15T14:26:36;-25.88;50.38
74540;SHT31;66042;51.090;-115.340;2024-01-15T14:29:03;-25.78;50.18
74540;SHT31;66042;51.090;-115.340;2024-01-15T14:31:31;-25.78;49.88
74540;SHT31;66042;51.090;-115.340;2024-01-15T14:33:59;-25.89;49.84
74540;SHT31;66042;51.090;-115.340;2024-01-15T14:36:28;-25.93;50.08
74540;SHT31;66042;51.090;-115.340;2024-01-15T14:38:55;-25.93;50.11
74540;SHT31;66042;51.090;-115.340;2024-01-15T14:41:22;-25.80;50.24
74540;SHT31;66042;51.090;-115.340;2024-01-15T14:43:49;-25.70;50.30